sensor_id;sensor_type;location;lat;lon;timestamp;P1;durP1;ratioP1;P2;durP2;ratioP2
26702;SDS011;14316;51.074;3.704;2023-03-31T00:00:51;24.30;;;4.50;;
26702;SDS011;14316;51.074;3.704;2023-03-31T00:03:18;20.40;;;4.82;;
26702;SDS011;14316;51.074;3.704;2023-03-31T00:05:48;22.33;;;3.88;;
26702;SDS011;14316;51.074;3.704;2023-03-31T00:08:17;17.58;;;3.20;;
26702;SDS011;14316;51.074;3.704;2023-03-31T00:10:45;25.23;;;5.05;;
26702;SDS011;14316;51.074;3.704;2023-03-31T00:13:12;25.48;;;4.55;;
26702;SDS011;14316;51.074;3.704;2023-03-31T00:15:38;15.25;;;2.70;;
26702;SDS011;14316;51.074;3.704;2023-03-31T00:18:04;24.80;;;4.47;;
26702;SDS011;14316;51.074;3.704;2023-03-31T00:20:30;20.08;;;3.67;;
26702;SDS011;14316;51.074;3.704;2023-03-31T00:23:02;26.58;;;5.50;;
26702;SDS011;14316;51.074;3.704;2023-03-31T00:25:30;18.10;;;3.85;;
26702;SDS011;14316;51.074;3.704;2023-03-31T00:27:56;21.25;;;4.25;;
26702;SDS011;14316;51.074;3.704;2023-03-31T00:30:22;21.48;;;3.92;;
26702;SDS011;14316;51.074;3.704;2023-03-31T00:32:49;24.08;;;4.10;;
26702;SDS011;14316;51.074;3.704;2023-03-31T00:35:15;19.30;;;3.90;;
26702;SDS011;14316;51.074;3.704;2023-03-31T00:37:41;23.42;;;4.35;;
26702;SDS011;14316;51.074;3.704;2023-03-31T00:40:07;13.07;;;2.67;;
26702;SDS011;14316;51.074;3.704;2023-03-31T00:42:40;19.55;;;4.05;;
26702;SDS011;14316;51.074;3.704;2023-03-31T00:47:44;21.90;;;4.57;;
26702;SDS011;14316;51.074;3.704;2023-03-31T00:50:17;26.90;;;4.40;;
26702;SDS011;14316;51.074;3.704;2023-03-31T00:52:47;20.52;;;4.38;;
26702;SDS011;14316;51.074;3.704;2023-03-31T00:55:22;27.05;;;4.65;;
26702;SDS011;14316;51.074;3.704;2023-03-31T00:57:51;27.48;;;5.03;;
26702;SDS011;14316;51.074;3.704;2023-03-31T01:00:19;18.42;;;4.70;;
26702;SDS011;14316;51.074;3.704;2023-03-31T01:02:49;27.75;;;5.03;;
26702;SDS011;14316;51.074;3.704;2023-03-31T01:05:37;21.65;;;4.88;;
26702;SDS011;14316;51.074;3.704;2023-03-31T01:08:10;26.25;;;4.93;;
26702;SDS011;14316;51.074;3.704;2023-03-31T01:10:40;19.45;;;4.78;;
26702;SDS011;14316;51.074;3.704;2023-03-31T01:13:11;30.83;;;5.20;;
26702;SDS011;14316;51.074;3.704;2023-03-31T01:15:39;22.85;;;4.80;;
26702;SDS011;14316;51.074;3.704;2023-03-31T01:18:06;20.98;;;4.15;;
26702;SDS011;14316;51.074;3.704;2023-03-31T01:21:00;24.60;;;4.65;;
26702;SDS011;14316;51.074;3.704;2023-03-31T01:40:32;19.63;;;4.40;;
26702;SDS011;14316;51.074;3.704;2023-03-31T01:48:43;17.70;;;3.75;;
26702;SDS011;14316;51.074;3.704;2023-03-31T01:51:21;17.95;;;3.78;;
26702;SDS011;14316;51.074;3.704;2023-03-31T01:54:14;18.25;;;3.45;;
26702;SDS011;14316;51.074;3.704;2023-03-31T01:57:00;20.90;;;3.53;;
26702;SDS011;14316;51.074;3.704;2023-03-31T01:59:53;16.88;;;3.60;;
26702;SDS011;14316;51.074;3.704;2023-03-31T02:05:18;17.83;;;3.75;;
26702;SDS011;14316;51.074;3.704;2023-03-31T02:07:57;23.52;;;4.68;;
26702;SDS011;14316;51.074;3.704;2023-03-31T02:10:28;14.70;;;3.90;;
26702;SDS011;14316;51.074;3.704;2023-03-31T02:12:56;22.42;;;4.70;;
26702;SDS011;14316;51.074;3.704;2023-03-31T02:15:25;17.42;;;4.72;;
26702;SDS011;14316;51.074;3.704;2023-03-31T02:17:56;14.82;;;4.38;;
26702;SDS011;14316;51.074;3.704;2023-03-31T02:20:24;20.48;;;4.75;;
26702;SDS011;14316;51.074;3.704;2023-03-31T02:22:54;26.02;;;5.07;;
26702;SDS011;14316;51.074;3.704;2023-03-31T02:25:22;17.73;;;5.18;;
26702;SDS011;14316;51.074;3.704;2023-03-31T02:27:56;15.45;;;3.83;;
26702;SDS011;14316;51.074;3.704;2023-03-31T02:30:28;11.80;;;3.58;;
26702;SDS011;14316;51.074;3.704;2023-03-31T02:33:04;13.30;;;3.72;;
26702;SDS011;14316;51.074;3.704;2023-03-31T02:35:30;15.43;;;3.53;;
26702;SDS011;14316;51.074;3.704;2023-03-31T02:37:59;18.60;;;3.97;;
26702;SDS011;14316;51.074;3.704;2023-03-31T02:40:25;14.10;;;3.58;;
26702;SDS011;14316;51.074;3.704;2023-03-31T02:42:52;15.55;;;3.70;;
26702;SDS011;14316;51.074;3.704;2023-03-31T02:45:37;19.25;;;3.90;;
26702;SDS011;14316;51.074;3.704;2023-03-31T02:48:07;15.10;;;4.20;;
26702;SDS011;14316;51.074;3.704;2023-03-31T03:10:11;8.55;;;1.80;;
26702;SDS011;14316;51.074;3.704;2023-03-31T03:13:08;6.20;;;1.55;;
26702;SDS011;14316;51.074;3.704;2023-03-31T03:15:57;6.22;;;1.95;;
26702;SDS011;14316;51.074;3.704;2023-03-31T03:18:58;5.70;;;1.40;;
26702;SDS011;14316;51.074;3.704;2023-03-31T03:21:26;5.10;;;1.40;;
26702;SDS011;14316;51.074;3.704;2023-03-31T03:23:53;4.05;;;1.35;;
26702;SDS011;14316;51.074;3.704;2023-03-31T03:26:19;3.45;;;1.08;;
26702;SDS011;14316;51.074;3.704;2023-03-31T03:28:48;3.50;;;1.20;;
26702;SDS011;14316;51.074;3.704;2023-03-31T03:31:14;2.47;;;1.17;;
26702;SDS011;14316;51.074;3.704;2023-03-31T03:33:41;4.43;;;1.20;;
26702;SDS011;14316;51.074;3.704;2023-03-31T03:36:07;4.13;;;0.70;;
26702;SDS011;14316;51.074;3.704;2023-03-31T03:38:33;1.83;;;0.80;;
26702;SDS011;14316;51.074;3.704;2023-03-31T03:41:00;1.73;;;0.70;;
26702;SDS011;14316;51.074;3.704;2023-03-31T03:43:26;2.45;;;0.90;;
26702;SDS011;14316;51.074;3.704;2023-03-31T03:45:52;5.95;;;1.05;;
26702;SDS011;14316;51.074;3.704;2023-03-31T03:48:19;4.47;;;1.05;;
26702;SDS011;14316;51.074;3.704;2023-03-31T03:50:45;3.33;;;0.75;;
26702;SDS011;14316;51.074;3.704;2023-03-31T03:53:12;1.42;;;0.93;;
26702;SDS011;14316;51.074;3.704;2023-03-31T03:55:39;4.05;;;0.80;;
26702;SDS011;14316;51.074;3.704;2023-03-31T03:58:05;2.90;;;0.82;;
26702;SDS011;14316;51.074;3.704;2023-03-31T04:00:31;1.48;;;0.90;;
26702;SDS011;14316;51.074;3.704;2023-03-31T04:02:57;2.58;;;0.70;;
26702;SDS011;14316;51.074;3.704;2023-03-31T04:05:23;4.18;;;1.27;;
26702;SDS011;14316;51.074;3.704;2023-03-31T04:07:49;1.85;;;1.25;;
26702;SDS011;14316;51.074;3.704;2023-03-31T04:10:15;4.00;;;1.23;;
26702;SDS011;14316;51.074;3.704;2023-03-31T04:12:41;4.70;;;1.10;;
26702;SDS011;14316;51.074;3.704;2023-03-31T04:15:07;2.70;;;1.63;;
26702;SDS011;14316;51.074;3.704;2023-03-31T04:17:33;3.33;;;0.88;;
26702;SDS011;14316;51.074;3.704;2023-03-31T04:20:01;4.43;;;1.20;;
26702;SDS011;14316;51.074;3.704;2023-03-31T04:22:30;2.45;;;0.93;;
26702;SDS011;14316;51.074;3.704;2023-03-31T04:25:05;5.15;;;1.17;;
26702;SDS011;14316;51.074;3.704;2023-03-31T04:27:42;6.35;;;1.15;;
26702;SDS011;14316;51.074;3.704;2023-03-31T04:30:25;4.68;;;1.08;;
26702;SDS011;14316;51.074;3.704;2023-03-31T04:32:58;5.68;;;1.33;;
26702;SDS011;14316;51.074;3.704;2023-03-31T04:35:26;10.23;;;1.55;;
26702;SDS011;14316;51.074;3.704;2023-03-31T04:38:06;3.83;;;1.48;;
26702;SDS011;14316;51.074;3.704;2023-03-31T04:40:33;3.40;;;1.40;;
26702;SDS011;14316;51.074;3.704;2023-03-31T04:42:59;2.53;;;1.20;;
26702;SDS011;14316;51.074;3.704;2023-03-31T04:45:25;9.45;;;2.08;;
26702;SDS011;14316;51.074;3.704;2023-03-31T04:47:51;3.90;;;1.42;;
26702;SDS011;14316;51.074;3.704;2023-03-31T04:50:18;5.10;;;1.55;;
26702;SDS011;14316;51.074;3.704;2023-03-31T04:52:44;6.38;;;1.88;;
26702;SDS011;14316;51.074;3.704;2023-03-31T04:55:10;6.60;;;1.80;;
26702;SDS011;14316;51.074;3.704;2023-03-31T04:57:36;6.03;;;2.10;;
26702;SDS011;14316;51.074;3.704;2023-03-31T05:00:02;10.38;;;2.22;;
26702;SDS011;14316;51.074;3.704;2023-03-31T05:02:32;6.50;;;2.17;;
26702;SDS011;14316;51.074;3.704;2023-03-31T05:04:57;7.63;;;2.63;;
26702;SDS011;14316;51.074;3.704;2023-03-31T05:07:23;8.63;;;2.53;;
26702;SDS011;14316;51.074;3.704;2023-03-31T05:09:50;9.95;;;2.65;;
26702;SDS011;14316;51.074;3.704;2023-03-31T05:12:16;9.45;;;2.67;;
26702;SDS011;14316;51.074;3.704;2023-03-31T05:14:42;11.20;;;2.65;;
26702;SDS011;14316;51.074;3.704;2023-03-31T05:17:08;12.43;;;3.33;;
26702;SDS011;14316;51.074;3.704;2023-03-31T05:19:33;13.15;;;3.60;;
26702;SDS011;14316;51.074;3.704;2023-03-31T05:21:59;10.98;;;3.17;;
26702;SDS011;14316;51.074;3.704;2023-03-31T05:24:25;15.70;;;4.15;;
26702;SDS011;14316;51.074;3.704;2023-03-31T05:26:54;15.07;;;4.30;;
26702;SDS011;14316;51.074;3.704;2023-03-31T05:29:21;15.05;;;3.80;;
26702;SDS011;14316;51.074;3.704;2023-03-31T05:31:48;14.98;;;3.30;;
26702;SDS011;14316;51.074;3.704;2023-03-31T05:34:14;21.52;;;4.15;;
26702;SDS011;14316;51.074;3.704;2023-03-31T05:36:40;16.98;;;4.35;;
26702;SDS011;14316;51.074;3.704;2023-03-31T05:39:07;17.38;;;4.13;;
26702;SDS011;14316;51.074;3.704;2023-03-31T05:41:34;7.95;;;2.53;;
26702;SDS011;14316;51.074;3.704;2023-03-31T05:44:00;16.52;;;4.00;;
26702;SDS011;14316;51.074;3.704;2023-03-31T05:46:29;18.73;;;4.70;;
26702;SDS011;14316;51.074;3.704;2023-03-31T05:48:55;17.13;;;4.63;;
26702;SDS011;14316;51.074;3.704;2023-03-31T05:51:23;18.70;;;4.00;;
26702;SDS011;14316;51.074;3.704;2023-03-31T05:53:49;16.55;;;3.92;;
26702;SDS011;14316;51.074;3.704;2023-03-31T05:56:15;16.13;;;4.03;;
26702;SDS011;14316;51.074;3.704;2023-03-31T05:58:41;22.98;;;3.78;;
26702;SDS011;14316;51.074;3.704;2023-03-31T06:01:08;16.63;;;4.57;;
26702;SDS011;14316;51.074;3.704;2023-03-31T06:03:36;20.33;;;4.45;;
26702;SDS011;14316;51.074;3.704;2023-03-31T06:06:05;14.60;;;3.65;;
26702;SDS011;14316;51.074;3.704;2023-03-31T06:08:35;15.82;;;3.90;;
26702;SDS011;14316;51.074;3.704;2023-03-31T06:11:05;20.85;;;4.78;;
26702;SDS011;14316;51.074;3.704;2023-03-31T06:13:33;12.07;;;3.77;;
26702;SDS011;14316;51.074;3.704;2023-03-31T06:16:00;19.80;;;3.78;;
26702;SDS011;14316;51.074;3.704;2023-03-31T06:18:27;20.75;;;4.18;;
26702;SDS011;14316;51.074;3.704;2023-03-31T06:20:54;19.30;;;4.03;;
26702;SDS011;14316;51.074;3.704;2023-03-31T06:23:21;17.83;;;5.07;;
26702;SDS011;14316;51.074;3.704;2023-03-31T06:25:47;16.60;;;3.88;;
26702;SDS011;14316;51.074;3.704;2023-03-31T06:28:13;19.75;;;4.55;;
26702;SDS011;14316;51.074;3.704;2023-03-31T06:30:40;16.92;;;3.95;;
26702;SDS011;14316;51.074;3.704;2023-03-31T06:33:06;22.35;;;4.00;;
26702;SDS011;14316;51.074;3.704;2023-03-31T06:35:32;17.20;;;3.47;;
26702;SDS011;14316;51.074;3.704;2023-03-31T06:38:01;15.68;;;4.10;;
26702;SDS011;14316;51.074;3.704;2023-03-31T06:40:28;17.63;;;3.88;;
26702;SDS011;14316;51.074;3.704;2023-03-31T06:42:54;21.85;;;4.80;;
26702;SDS011;14316;51.074;3.704;2023-03-31T06:45:20;21.63;;;4.20;;
26702;SDS011;14316;51.074;3.704;2023-03-31T06:47:46;22.48;;;5.35;;
26702;SDS011;14316;51.074;3.704;2023-03-31T06:50:12;16.15;;;3.88;;
26702;SDS011;14316;51.074;3.704;2023-03-31T06:52:39;18.85;;;4.20;;
26702;SDS011;14316;51.074;3.704;2023-03-31T06:55:08;17.83;;;4.03;;
26702;SDS011;14316;51.074;3.704;2023-03-31T06:57:34;21.55;;;3.88;;
26702;SDS011;14316;51.074;3.704;2023-03-31T07:00:00;25.38;;;5.40;;
26702;SDS011;14316;51.074;3.704;2023-03-31T07:02:27;17.77;;;4.35;;
26702;SDS011;14316;51.074;3.704;2023-03-31T07:04:54;18.50;;;4.53;;
26702;SDS011;14316;51.074;3.704;2023-03-31T07:07:20;27.42;;;5.50;;
26702;SDS011;14316;51.074;3.704;2023-03-31T07:09:45;20.45;;;4.93;;
26702;SDS011;14316;51.074;3.704;2023-03-31T07:12:11;18.65;;;4.45;;
26702;SDS011;14316;51.074;3.704;2023-03-31T07:14:38;23.58;;;5.45;;
26702;SDS011;14316;51.074;3.704;2023-03-31T07:17:04;22.33;;;5.35;;
26702;SDS011;14316;51.074;3.704;2023-03-31T07:19:30;18.45;;;4.20;;
26702;SDS011;14316;51.074;3.704;2023-03-31T07:21:56;21.67;;;6.78;;
26702;SDS011;14316;51.074;3.704;2023-03-31T07:24:22;22.05;;;4.82;;
26702;SDS011;14316;51.074;3.704;2023-03-31T07:26:48;24.08;;;5.55;;
26702;SDS011;14316;51.074;3.704;2023-03-31T07:29:15;26.05;;;5.15;;
26702;SDS011;14316;51.074;3.704;2023-03-31T07:31:41;24.10;;;4.38;;
26702;SDS011;14316;51.074;3.704;2023-03-31T07:34:06;21.92;;;5.68;;
26702;SDS011;14316;51.074;3.704;2023-03-31T07:36:32;26.92;;;4.80;;
26702;SDS011;14316;51.074;3.704;2023-03-31T07:38:58;23.77;;;4.68;;
26702;SDS011;14316;51.074;3.704;2023-03-31T07:41:25;26.35;;;5.28;;
26702;SDS011;14316;51.074;3.704;2023-03-31T07:43:51;27.30;;;5.63;;
26702;SDS011;14316;51.074;3.704;2023-03-31T07:46:18;27.50;;;5.80;;
26702;SDS011;14316;51.074;3.704;2023-03-31T07:48:46;20.00;;;4.78;;
26702;SDS011;14316;51.074;3.704;2023-03-31T07:51:14;25.45;;;4.50;;
26702;SDS011;14316;51.074;3.704;2023-03-31T07:53:42;24.95;;;4.95;;
26702;SDS011;14316;51.074;3.704;2023-03-31T07:56:08;24.95;;;5.53;;
26702;SDS011;14316;51.074;3.704;2023-03-31T07:58:34;23.08;;;4.30;;
26702;SDS011;14316;51.074;3.704;2023-03-31T08:01:00;20.08;;;4.60;;
26702;SDS011;14316;51.074;3.704;2023-03-31T08:03:26;37.38;;;7.50;;
26702;SDS011;14316;51.074;3.704;2023-03-31T08:05:52;21.65;;;4.78;;
26702;SDS011;14316;51.074;3.704;2023-03-31T08:08:19;24.23;;;5.47;;
26702;SDS011;14316;51.074;3.704;2023-03-31T08:10:45;17.33;;;4.22;;
26702;SDS011;14316;51.074;3.704;2023-03-31T08:13:11;26.50;;;6.47;;
26702;SDS011;14316;51.074;3.704;2023-03-31T08:15:37;30.10;;;5.95;;
26702;SDS011;14316;51.074;3.704;2023-03-31T08:18:04;17.23;;;4.28;;
26702;SDS011;14316;51.074;3.704;2023-03-31T08:20:31;17.70;;;3.85;;
26702;SDS011;14316;51.074;3.704;2023-03-31T08:22:57;11.65;;;3.42;;
26702;SDS011;14316;51.074;3.704;2023-03-31T08:25:23;15.02;;;3.83;;
26702;SDS011;14316;51.074;3.704;2023-03-31T08:27:49;15.40;;;3.83;;
26702;SDS011;14316;51.074;3.704;2023-03-31T08:30:16;12.93;;;3.33;;
26702;SDS011;14316;51.074;3.704;2023-03-31T08:32:43;15.52;;;3.45;;
26702;SDS011;14316;51.074;3.704;2023-03-31T08:35:09;20.48;;;5.03;;
26702;SDS011;14316;51.074;3.704;2023-03-31T08:37:36;18.52;;;4.13;;
26702;SDS011;14316;51.074;3.704;2023-03-31T08:40:05;21.63;;;4.30;;
26702;SDS011;14316;51.074;3.704;2023-03-31T08:42:44;20.38;;;4.30;;
26702;SDS011;14316;51.074;3.704;2023-03-31T08:50:56;23.02;;;3.75;;
26702;SDS011;14316;51.074;3.704;2023-03-31T08:53:30;20.20;;;4.63;;
26702;SDS011;14316;51.074;3.704;2023-03-31T08:56:16;13.70;;;3.78;;
26702;SDS011;14316;51.074;3.704;2023-03-31T08:58:45;22.63;;;4.65;;
26702;SDS011;14316;51.074;3.704;2023-03-31T09:04:27;12.40;;;3.10;;
26702;SDS011;14316;51.074;3.704;2023-03-31T09:13:01;22.42;;;4.57;;
26702;SDS011;14316;51.074;3.704;2023-03-31T09:16:03;23.05;;;4.97;;
26702;SDS011;14316;51.074;3.704;2023-03-31T09:18:52;12.00;;;2.28;;
26702;SDS011;14316;51.074;3.704;2023-03-31T09:21:27;22.27;;;4.57;;
26702;SDS011;14316;51.074;3.704;2023-03-31T09:27:07;18.48;;;4.60;;
26702;SDS011;14316;51.074;3.704;2023-03-31T09:32:15;17.42;;;2.83;;
26702;SDS011;14316;51.074;3.704;2023-03-31T09:34:42;25.42;;;5.40;;
26702;SDS011;14316;51.074;3.704;2023-03-31T09:37:10;18.92;;;4.20;;
26702;SDS011;14316;51.074;3.704;2023-03-31T09:39:37;22.98;;;5.20;;
26702;SDS011;14316;51.074;3.704;2023-03-31T09:42:04;11.90;;;3.72;;
26702;SDS011;14316;51.074;3.704;2023-03-31T09:44:40;20.70;;;4.03;;
26702;SDS011;14316;51.074;3.704;2023-03-31T09:47:11;13.32;;;3.03;;
26702;SDS011;14316;51.074;3.704;2023-03-31T09:49:45;18.02;;;3.15;;
26702;SDS011;14316;51.074;3.704;2023-03-31T09:52:14;22.65;;;4.97;;
26702;SDS011;14316;51.074;3.704;2023-03-31T09:55:01;11.63;;;3.55;;
26702;SDS011;14316;51.074;3.704;2023-03-31T09:57:33;21.35;;;3.95;;
26702;SDS011;14316;51.074;3.704;2023-03-31T10:02:48;10.23;;;2.75;;
26702;SDS011;14316;51.074;3.704;2023-03-31T10:05:50;11.30;;;2.77;;
26702;SDS011;14316;51.074;3.704;2023-03-31T10:08:20;20.02;;;5.55;;
26702;SDS011;14316;51.074;3.704;2023-03-31T10:10:52;11.77;;;2.75;;
26702;SDS011;14316;51.074;3.704;2023-03-31T10:13:28;18.35;;;4.18;;
26702;SDS011;14316;51.074;3.704;2023-03-31T10:16:08;22.05;;;3.97;;
26702;SDS011;14316;51.074;3.704;2023-03-31T10:18:39;23.65;;;4.03;;
26702;SDS011;14316;51.074;3.704;2023-03-31T10:21:13;23.83;;;3.92;;
26702;SDS011;14316;51.074;3.704;2023-03-31T10:23:48;14.02;;;3.95;;
26702;SDS011;14316;51.074;3.704;2023-03-31T10:26:19;24.33;;;4.57;;
26702;SDS011;14316;51.074;3.704;2023-03-31T10:28:49;19.30;;;4.10;;
26702;SDS011;14316;51.074;3.704;2023-03-31T10:31:17;17.58;;;3.15;;
26702;SDS011;14316;51.074;3.704;2023-03-31T10:33:45;13.93;;;2.80;;
26702;SDS011;14316;51.074;3.704;2023-03-31T10:36:19;22.58;;;4.47;;
26702;SDS011;14316;51.074;3.704;2023-03-31T10:38:48;25.63;;;4.55;;
26702;SDS011;14316;51.074;3.704;2023-03-31T10:41:17;23.05;;;4.63;;
26702;SDS011;14316;51.074;3.704;2023-03-31T10:43:54;16.98;;;3.72;;
26702;SDS011;14316;51.074;3.704;2023-03-31T10:46:40;28.02;;;5.35;;
26702;SDS011;14316;51.074;3.704;2023-03-31T10:49:25;25.27;;;4.35;;
26702;SDS011;14316;51.074;3.704;2023-03-31T10:51:52;17.55;;;3.85;;
26702;SDS011;14316;51.074;3.704;2023-03-31T10:54:20;15.30;;;3.45;;
26702;SDS011;14316;51.074;3.704;2023-03-31T10:56:46;22.05;;;3.78;;
26702;SDS011;14316;51.074;3.704;2023-03-31T11:21:09;17.15;;;3.90;;
26702;SDS011;14316;51.074;3.704;2023-03-31T11:26:56;16.45;;;3.63;;
26702;SDS011;14316;51.074;3.704;2023-03-31T11:29:51;18.35;;;3.20;;
26702;SDS011;14316;51.074;3.704;2023-03-31T11:43:18;6.40;;;2.17;;
26702;SDS011;14316;51.074;3.704;2023-03-31T11:46:07;13.10;;;3.08;;
26702;SDS011;14316;51.074;3.704;2023-03-31T11:51:56;6.85;;;2.95;;
26702;SDS011;14316;51.074;3.704;2023-03-31T11:54:19;16.67;;;3.55;;
26702;SDS011;14316;51.074;3.704;2023-03-31T11:56:52;12.77;;;2.40;;
26702;SDS011;14316;51.074;3.704;2023-03-31T11:59:20;10.88;;;2.08;;
26702;SDS011;14316;51.074;3.704;2023-03-31T12:01:53;6.10;;;2.13;;
26702;SDS011;14316;51.074;3.704;2023-03-31T12:07:09;6.90;;;2.10;;
26702;SDS011;14316;51.074;3.704;2023-03-31T12:09:53;11.95;;;2.13;;
26702;SDS011;14316;51.074;3.704;2023-03-31T12:12:41;9.85;;;1.85;;
26702;SDS011;14316;51.074;3.704;2023-03-31T12:17:59;4.28;;;1.30;;
26702;SDS011;14316;51.074;3.704;2023-03-31T12:20:33;7.32;;;1.88;;
26702;SDS011;14316;51.074;3.704;2023-03-31T12:23:07;5.15;;;1.20;;
26702;SDS011;14316;51.074;3.704;2023-03-31T12:25:46;6.20;;;1.17;;
26702;SDS011;14316;51.074;3.704;2023-03-31T12:28:19;7.38;;;1.85;;
26702;SDS011;14316;51.074;3.704;2023-03-31T12:30:46;2.90;;;0.70;;
26702;SDS011;14316;51.074;3.704;2023-03-31T12:33:21;3.10;;;0.80;;
26702;SDS011;14316;51.074;3.704;2023-03-31T12:46:59;6.50;;;1.80;;
26702;SDS011;14316;51.074;3.704;2023-03-31T12:53:01;4.25;;;1.00;;
26702;SDS011;14316;51.074;3.704;2023-03-31T12:57:33;4.75;;;1.98;;
26702;SDS011;14316;51.074;3.704;2023-03-31T13:05:58;6.28;;;1.75;;
26702;SDS011;14316;51.074;3.704;2023-03-31T13:11:14;4.47;;;0.95;;
26702;SDS011;14316;51.074;3.704;2023-03-31T13:14:03;5.00;;;1.50;;
26702;SDS011;14316;51.074;3.704;2023-03-31T13:16:49;5.65;;;1.30;;
26702;SDS011;14316;51.074;3.704;2023-03-31T13:19:33;3.50;;;0.95;;
26702;SDS011;14316;51.074;3.704;2023-03-31T13:22:04;6.97;;;1.30;;
26702;SDS011;14316;51.074;3.704;2023-03-31T13:24:31;3.55;;;0.80;;
26702;SDS011;14316;51.074;3.704;2023-03-31T13:27:23;3.17;;;1.40;;
26702;SDS011;14316;51.074;3.704;2023-03-31T13:29:59;3.75;;;1.35;;
26702;SDS011;14316;51.074;3.704;2023-03-31T13:32:25;5.55;;;1.23;;
26702;SDS011;14316;51.074;3.704;2023-03-31T13:51:17;6.43;;;1.90;;
26702;SDS011;14316;51.074;3.704;2023-03-31T13:53:56;6.55;;;1.23;;
26702;SDS011;14316;51.074;3.704;2023-03-31T13:56:30;7.32;;;1.75;;
26702;SDS011;14316;51.074;3.704;2023-03-31T14:08:28;5.60;;;1.67;;
26702;SDS011;14316;51.074;3.704;2023-03-31T14:10:45;4.38;;;1.15;;
26702;SDS011;14316;51.074;3.704;2023-03-31T14:13:11;4.28;;;1.30;;
26702;SDS011;14316;51.074;3.704;2023-03-31T14:15:47;6.40;;;1.42;;
26702;SDS011;14316;51.074;3.704;2023-03-31T14:18:28;5.57;;;1.70;;
26702;SDS011;14316;51.074;3.704;2023-03-31T14:21:03;7.05;;;1.52;;
26702;SDS011;14316;51.074;3.704;2023-03-31T14:23:55;6.22;;;1.50;;
26702;SDS011;14316;51.074;3.704;2023-03-31T14:31:56;3.58;;;1.27;;
26702;SDS011;14316;51.074;3.704;2023-03-31T14:34:37;8.15;;;1.55;;
26702;SDS011;14316;51.074;3.704;2023-03-31T14:37:18;7.80;;;1.85;;
26702;SDS011;14316;51.074;3.704;2023-03-31T14:39:51;4.43;;;1.63;;
26702;SDS011;14316;51.074;3.704;2023-03-31T14:42:25;7.20;;;1.98;;
26702;SDS011;14316;51.074;3.704;2023-03-31T14:45:05;4.93;;;1.23;;
26702;SDS011;14316;51.074;3.704;2023-03-31T14:47:40;6.75;;;1.42;;
26702;SDS011;14316;51.074;3.704;2023-03-31T14:52:44;3.40;;;1.33;;
26702;SDS011;14316;51.074;3.704;2023-03-31T14:55:16;9.40;;;1.70;;
26702;SDS011;14316;51.074;3.704;2023-03-31T14:57:46;7.88;;;1.60;;
26702;SDS011;14316;51.074;3.704;2023-03-31T15:00:16;7.40;;;2.28;;
26702;SDS011;14316;51.074;3.704;2023-03-31T15:02:49;6.40;;;1.55;;
26702;SDS011;14316;51.074;3.704;2023-03-31T15:05:22;6.30;;;1.83;;
26702;SDS011;14316;51.074;3.704;2023-03-31T15:07:55;5.28;;;1.65;;
26702;SDS011;14316;51.074;3.704;2023-03-31T15:10:32;9.32;;;2.17;;
26702;SDS011;14316;51.074;3.704;2023-03-31T15:13:08;8.43;;;4.05;;
26702;SDS011;14316;51.074;3.704;2023-03-31T15:15:43;10.17;;;2.33;;
26702;SDS011;14316;51.074;3.704;2023-03-31T15:18:16;9.90;;;2.92;;
26702;SDS011;14316;51.074;3.704;2023-03-31T15:20:43;9.68;;;3.55;;
26702;SDS011;14316;51.074;3.704;2023-03-31T15:23:26;12.40;;;2.83;;
26702;SDS011;14316;51.074;3.704;2023-03-31T15:28:23;9.68;;;3.25;;
26702;SDS011;14316;51.074;3.704;2023-03-31T15:30:55;15.45;;;2.70;;
26702;SDS011;14316;51.074;3.704;2023-03-31T15:33:23;12.43;;;3.05;;
26702;SDS011;14316;51.074;3.704;2023-03-31T15:35:55;17.52;;;4.07;;
26702;SDS011;14316;51.074;3.704;2023-03-31T15:38:22;12.25;;;3.85;;
26702;SDS011;14316;51.074;3.704;2023-03-31T15:40:53;7.63;;;3.00;;
26702;SDS011;14316;51.074;3.704;2023-03-31T15:45:55;12.45;;;4.13;;
26702;SDS011;14316;51.074;3.704;2023-03-31T15:48:32;11.32;;;2.25;;
26702;SDS011;14316;51.074;3.704;2023-03-31T15:51:00;11.18;;;2.40;;
26702;SDS011;14316;51.074;3.704;2023-03-31T15:53:50;15.05;;;3.25;;
26702;SDS011;14316;51.074;3.704;2023-03-31T15:59:02;8.68;;;2.58;;
26702;SDS011;14316;51.074;3.704;2023-03-31T16:01:29;12.13;;;3.72;;
26702;SDS011;14316;51.074;3.704;2023-03-31T16:04:06;8.45;;;2.70;;
26702;SDS011;14316;51.074;3.704;2023-03-31T16:09:24;11.30;;;2.22;;
26702;SDS011;14316;51.074;3.704;2023-03-31T16:11:56;18.65;;;3.38;;
26702;SDS011;14316;51.074;3.704;2023-03-31T16:17:04;15.30;;;3.00;;
26702;SDS011;14316;51.074;3.704;2023-03-31T16:19:45;11.77;;;3.78;;
26702;SDS011;14316;51.074;3.704;2023-03-31T16:22:20;16.25;;;3.58;;
26702;SDS011;14316;51.074;3.704;2023-03-31T16:24:50;16.38;;;4.07;;
26702;SDS011;14316;51.074;3.704;2023-03-31T16:27:16;19.10;;;4.20;;
26702;SDS011;14316;51.074;3.704;2023-03-31T16:29:42;15.95;;;4.05;;
26702;SDS011;14316;51.074;3.704;2023-03-31T16:32:13;20.15;;;3.83;;
26702;SDS011;14316;51.074;3.704;2023-03-31T16:35:01;15.18;;;3.92;;
26702;SDS011;14316;51.074;3.704;2023-03-31T16:37:29;15.88;;;3.13;;
26702;SDS011;14316;51.074;3.704;2023-03-31T16:39:55;19.80;;;3.47;;
26702;SDS011;14316;51.074;3.704;2023-03-31T16:42:21;17.20;;;3.85;;
26702;SDS011;14316;51.074;3.704;2023-03-31T16:44:48;19.30;;;4.22;;
26702;SDS011;14316;51.074;3.704;2023-03-31T16:47:15;12.73;;;3.83;;
26702;SDS011;14316;51.074;3.704;2023-03-31T16:49:41;14.32;;;3.83;;
26702;SDS011;14316;51.074;3.704;2023-03-31T16:52:07;12.25;;;3.00;;
26702;SDS011;14316;51.074;3.704;2023-03-31T16:54:33;20.48;;;3.65;;
26702;SDS011;14316;51.074;3.704;2023-03-31T16:57:00;8.57;;;3.13;;
26702;SDS011;14316;51.074;3.704;2023-03-31T16:59:26;14.50;;;3.60;;
26702;SDS011;14316;51.074;3.704;2023-03-31T17:01:52;23.40;;;4.82;;
26702;SDS011;14316;51.074;3.704;2023-03-31T17:04:18;16.70;;;3.42;;
26702;SDS011;14316;51.074;3.704;2023-03-31T17:06:44;14.80;;;4.00;;
26702;SDS011;14316;51.074;3.704;2023-03-31T17:09:11;26.52;;;5.30;;
26702;SDS011;14316;51.074;3.704;2023-03-31T17:11:37;8.75;;;3.03;;
26702;SDS011;14316;51.074;3.704;2023-03-31T17:14:03;8.95;;;3.58;;
26702;SDS011;14316;51.074;3.704;2023-03-31T17:16:30;12.93;;;4.50;;
26702;SDS011;14316;51.074;3.704;2023-03-31T17:18:56;11.23;;;3.00;;
26702;SDS011;14316;51.074;3.704;2023-03-31T17:21:22;15.55;;;4.03;;
26702;SDS011;14316;51.074;3.704;2023-03-31T17:23:48;18.25;;;3.63;;
26702;SDS011;14316;51.074;3.704;2023-03-31T17:26:14;16.65;;;4.03;;
26702;SDS011;14316;51.074;3.704;2023-03-31T17:28:42;20.50;;;4.50;;
26702;SDS011;14316;51.074;3.704;2023-03-31T17:31:17;20.30;;;4.30;;
26702;SDS011;14316;51.074;3.704;2023-03-31T17:33:45;15.80;;;4.68;;
26702;SDS011;14316;51.074;3.704;2023-03-31T17:36:12;19.15;;;4.20;;
26702;SDS011;14316;51.074;3.704;2023-03-31T17:38:39;31.38;;;4.80;;
26702;SDS011;14316;51.074;3.704;2023-03-31T17:41:07;8.88;;;3.22;;
26702;SDS011;14316;51.074;3.704;2023-03-31T17:43:35;19.42;;;4.38;;
26702;SDS011;14316;51.074;3.704;2023-03-31T17:46:05;23.55;;;4.93;;
26702;SDS011;14316;51.074;3.704;2023-03-31T17:48:35;13.05;;;3.20;;
26702;SDS011;14316;51.074;3.704;2023-03-31T17:51:09;14.93;;;3.42;;
26702;SDS011;14316;51.074;3.704;2023-03-31T17:53:38;11.32;;;2.83;;
26702;SDS011;14316;51.074;3.704;2023-03-31T17:56:05;13.93;;;3.80;;
26702;SDS011;14316;51.074;3.704;2023-03-31T17:58:31;18.05;;;3.95;;
26702;SDS011;14316;51.074;3.704;2023-03-31T18:00:58;18.27;;;4.07;;
26702;SDS011;14316;51.074;3.704;2023-03-31T18:03:26;22.25;;;4.97;;
26702;SDS011;14316;51.074;3.704;2023-03-31T18:05:52;23.60;;;5.50;;